Time;durP1;ratioP1;P1;durP2;ratioP2;P2;SDS_P1;SDS_P2;PMS_P1;PMS_P2;Temp;Humidity;BMP_temperature;BMP_pressure;BME280_temperature;BME280_humidity;BME280_pressure;Samples;Min_cycle;Max_cycle;Signal;HPM_P1;HPM_P2
2022/12/29 00:01:38;;;;;;;;;;;;;;;11.74;88.22;99045.50;7359202;19;20337;-64
2022/12/29 00:04:05;;;;;;;;;;;;;;;11.75;87.62;99052.38;7358078;19;19943;-64
2022/12/29 00:06:38;;;;;;;;;;;;;;;11.71;86.89;99040.63;7352529;19;19927;-64
2022/12/29 00:09:05;;;;;;;;;;;;;;;11.74;87.32;99045.50;7355941;19;20368;-64
2022/12/29 00:11:31;;;;;;;;;;;;;;;11.72;86.87;99050.16;7356420;19;20115;-63
2022/12/29 00:16:51;;;;;;;;;;;;;;;11.73;87.60;99038.63;7357873;19;19943;-64
2022/12/29 00:36:04;;;;;;;;;;;;;;;11.79;87.49;99038.59;7354188;19;19914;-64
2022/12/29 00:44:09;;;;;;;;;;;;;;;11.76;85.21;99038.22;7356954;19;19949;-65
2022/12/29 00:46:37;;;;;;;;;;;;;;;11.76;84.62;99028.47;7356723;19;19943;-64
2022/12/29 00:51:50;;;;;;;;;;;;;;;11.78;84.90;99044.91;7352942;19;19949;-65
2022/12/29 00:54:17;;;;;;;;;;;;;;;11.80;85.29;99034.97;7354544;19;19931;-65
2022/12/29 00:56:48;;;;;;;;;;;;;;;11.82;85.01;99042.66;7355024;19;19918;-65
2022/12/29 00:59:14;;;;;;;;;;;;;;;11.84;85.45;99036.16;7358183;19;19922;-66
2022/12/29 01:01:43;;;;;;;;;;;;;;;11.89;86.43;99041.63;7354719;19;20448;-66
2022/12/29 01:04:10;;;;;;;;;;;;;;;11.89;86.08;99044.25;7355627;19;19915;-64
2022/12/29 01:06:38;;;;;;;;;;;;;;;11.88;85.87;99036.59;7349578;19;19919;-64
2022/12/29 01:11:50;;;;;;;;;;;;;;;11.88;85.66;99023.41;7355643;19;20376;-65
2022/12/29 01:14:18;;;;;;;;;;;;;;;11.88;86.06;99039.22;7356562;19;19938;-64
2022/12/29 01:16:45;;;;;;;;;;;;;;;11.86;86.02;99028.88;7356120;19;20471;-65
2022/12/29 01:19:12;;;;;;;;;;;;;;;11.80;84.64;99013.06;7356237;19;19933;-64
2022/12/29 01:21:39;;;;;;;;;;;;;;;11.71;83.60;99012.44;7353510;19;19929;-65
2022/12/29 01:24:06;;;;;;;;;;;;;;;11.63;82.65;99019.75;7355599;19;20434;-64
2022/12/29 01:26:32;;;;;;;;;;;;;;;11.61;83.64;99006.78;7355842;19;19922;-64
2022/12/29 01:28:59;;;;;;;;;;;;;;;11.57;82.91;99011.66;7351953;19;19972;-64
2022/12/29 01:31:26;;;;;;;;;;;;;;;11.53;81.81;99009.63;7354763;19;19919;-64
2022/12/29 01:33:53;;;;;;;;;;;;;;;11.54;82.03;99006.78;7352404;19;20423;-64
2022/12/29 01:36:19;;;;;;;;;;;;;;;11.54;81.75;99009.41;7352463;19;19915;-64
2022/12/29 01:38:46;;;;;;;;;;;;;;;11.51;81.60;99027.47;7354984;19;19939;-64
2022/12/29 01:41:14;;;;;;;;;;;;;;;11.48;81.56;99026.03;7356728;19;19911;-64
2022/12/29 01:43:52;;;;;;;;;;;;;;;11.48;82.08;99035.75;7352977;19;20411;-64
2022/12/29 01:46:31;;;;;;;;;;;;;;;11.48;81.64;99033.94;7356833;19;19914;-65
2022/12/29 01:49:01;;;;;;;;;;;;;;;11.47;81.98;99034.97;7357268;19;19915;-65
2022/12/29 01:51:29;;;;;;;;;;;;;;;11.46;82.74;99030.72;7352106;19;19943;-65
2022/12/29 01:53:57;;;;;;;;;;;;;;;11.45;83.35;99030.91;7355013;19;19922;-65
2022/12/29 01:56:24;;;;;;;;;;;;;;;11.45;84.05;99038.81;7352483;19;19926;-65
2022/12/29 01:58:55;;;;;;;;;;;;;;;11.39;83.42;99035.16;7355540;19;19919;-65
2022/12/29 02:01:22;;;;;;;;;;;;;;;11.34;83.11;99029.69;7352542;19;21670;-65
2022/12/29 02:03:50;;;;;;;;;;;;;;;11.32;82.15;99041.44;7354603;19;19907;-64
2022/12/29 02:06:35;;;;;;;;;;;;;;;11.30;81.96;99038.19;7350462;19;19934;-64
2022/12/29 02:09:01;;;;;;;;;;;;;;;11.32;83.31;99026.47;7358718;19;20539;-64
2022/12/29 02:11:29;;;;;;;;;;;;;;;11.31;81.49;99039.81;7362223;19;19919;-65
2022/12/29 02:13:56;;;;;;;;;;;;;;;11.28;81.63;99037.56;7358360;19;19926;-64
2022/12/29 02:16:48;;;;;;;;;;;;;;;11.23;81.11;99047.91;7359884;19;19926;-64
2022/12/29 02:19:18;;;;;;;;;;;;;;;11.22;80.98;99049.75;7359755;19;20286;-64
2022/12/29 02:21:45;;;;;;;;;;;;;;;11.22;80.37;99046.31;7360283;19;19930;-64
2022/12/29 02:24:12;;;;;;;;;;;;;;;11.23;80.46;99042.63;7362360;19;19911;-65
2022/12/29 02:26:47;;;;;;;;;;;;;;;11.22;80.09;99036.59;7359758;19;19914;-64
2022/12/29 02:29:34;;;;;;;;;;;;;;;11.18;78.61;99043.22;7361616;19;19949;-64
2022/12/29 02:32:03;;;;;;;;;;;;;;;11.22;79.69;99051.56;7357073;19;19919;-65
2022/12/29 02:34:33;;;;;;;;;;;;;;;11.22;78.90;99051.56;7361206;19;20473;-64
2022/12/29 02:37:15;;;;;;;;;;;;;;;11.22;78.92;99049.75;7355385;19;19943;-65
2022/12/29 02:39:52;;;;;;;;;;;;;;;11.26;79.52;99058.03;7361811;19;19923;-65
2022/12/29 02:42:19;;;;;;;;;;;;;;;11.27;79.22;99052.59;7359503;19;19951;-64
2022/12/29 02:44:59;;;;;;;;;;;;;;;11.26;79.61;99042.25;7360523;19;19927;-64
2022/12/29 02:47:47;;;;;;;;;;;;;;;11.26;80.32;99045.69;7361429;19;19941;-64
2022/12/29 02:50:43;;;;;;;;;;;;;;;11.26;80.65;99043.06;7357327;19;19930;-64
2022/12/29 02:53:15;;;;;;;;;;;;;;;11.24;80.23;99026.63;7358031;19;19983;-64
2022/12/29 02:55:48;;;;;;;;;;;;;;;11.22;80.63;99026.06;7363887;19;19957;-65
2022/12/29 02:58:19;;;;;;;;;;;;;;;11.24;82.37;99037.16;7361978;19;19923;-64
2022/12/29 03:00:53;;;;;;;;;;;;;;;11.26;82.29;99027.25;7363366;19;19933;-64
2022/12/29 03:03:26;;;;;;;;;;;;;;;11.28;82.21;99029.66;7358938;19;19958;-64
2022/12/29 03:05:52;;;;;;;;;;;;;;;11.29;80.75;99031.28;7357185;19;19957;-64
2022/12/29 03:08:32;;;;;;;;;;;;;;;11.33;81.73;99029.88;7361273;19;19918;-65
2022/12/29 03:12:07;;;;;;;;;;;;;;;11.36;82.15;99045.28;7360989;19;20250;-63
2022/12/29 03:17:02;;;;;;;;;;;;;;;11.37;80.16;99053.00;7360699;19;19942;-64
2022/12/29 03:19:36;;;;;;;;;;;;;;;11.40;80.89;99060.47;7356879;19;20327;-65
2022/12/29 03:22:26;;;;;;;;;;;;;;;11.46;81.18;99051.78;7355844;19;19929;-64
2022/12/29 03:24:59;;;;;;;;;;;;;;;11.50;80.63;99053.00;7357547;19;19940;-64
2022/12/29 03:27:28;;;;;;;;;;;;;;;11.53;80.85;99049.94;7359462;19;20416;-64
2022/12/29 03:29:58;;;;;;;;;;;;;;;11.58;80.85;99042.22;7358469;19;19918;-64
2022/12/29 03:32:33;;;;;;;;;;;;;;;11.62;80.43;99047.94;7358305;19;19976;-64
2022/12/29 03:35:00;;;;;;;;;;;;;;;11.62;79.71;99042.66;7359721;19;19934;-64
2022/12/29 03:37:38;;;;;;;;;;;;;;;11.64;79.22;99045.06;7357806;19;19923;-64
2022/12/29 03:40:11;;;;;;;;;;;;;;;11.68;79.42;99047.13;7358206;19;20477;-65
2022/12/29 03:42:39;;;;;;;;;;;;;;;11.72;79.42;99044.88;7357836;19;20517;-65
2022/12/29 03:45:06;;;;;;;;;;;;;;;11.73;78.31;99036.00;7357227;19;20234;-65
2022/12/29 03:47:33;;;;;;;;;;;;;;;11.72;77.34;99047.50;7358537;19;20382;-65
2022/12/29 03:50:00;;;;;;;;;;;;;;;11.72;77.66;99044.88;7356668;19;20283;-64
2022/12/29 03:52:26;;;;;;;;;;;;;;;11.72;77.74;99035.16;7354171;19;20115;-64
2022/12/29 03:54:53;;;;;;;;;;;;;;;11.75;77.76;99033.94;7357523;19;19926;-65
2022/12/29 03:57:20;;;;;;;;;;;;;;;11.75;77.42;99026.03;7356523;19;19919;-64
2022/12/29 03:59:46;;;;;;;;;;;;;;;11.77;77.76;99024.84;7356922;19;20223;-64
2022/12/29 04:02:13;;;;;;;;;;;;;;;11.80;77.66;99032.31;7359088;19;20010;-65
2022/12/29 04:04:40;;;;;;;;;;;;;;;11.78;77.68;99026.47;7354550;19;19922;-64
2022/12/29 04:07:07;;;;;;;;;;;;;;;11.81;78.51;99019.97;7353830;19;19922;-64
2022/12/29 04:09:34;;;;;;;;;;;;;;;11.83;79.23;99008.22;7357224;19;20549;-64
2022/12/29 04:12:00;;;;;;;;;;;;;;;11.84;78.70;99024.81;7357388;19;20569;-64
2022/12/29 04:14:27;;;;;;;;;;;;;;;11.84;78.85;99027.44;7355153;19;19919;-64
2022/12/29 04:16:53;;;;;;;;;;;;;;;11.85;78.79;99029.88;7355466;19;19929;-65
2022/12/29 04:19:20;;;;;;;;;;;;;;;11.83;79.07;99023.22;7356917;19;19937;-66
2022/12/29 04:21:47;;;;;;;;;;;;;;;11.86;79.87;99038.59;7356155;19;19934;-65
2022/12/29 04:24:14;;;;;;;;;;;;;;;11.86;79.96;99031.50;7351755;19;19918;-65
2022/12/29 04:26:41;;;;;;;;;;;;;;;11.90;80.49;99045.06;7355737;19;20394;-65
2022/12/29 04:29:08;;;;;;;;;;;;;;;11.95;80.98;99032.91;7357162;19;20977;-65
2022/12/29 04:31:34;;;;;;;;;;;;;;;11.96;80.46;99029.25;7353675;19;19919;-64
2022/12/29 04:34:01;;;;;;;;;;;;;;;11.97;81.23;99037.97;7353343;19;20493;-65
2022/12/29 04:36:28;;;;;;;;;;;;;;;12.00;80.89;99040.19;7354957;19;19918;-65
2022/12/29 04:38:55;;;;;;;;;;;;;;;11.98;80.94;99037.78;7356224;19;19930;-64
2022/12/29 04:41:23;;;;;;;;;;;;;;;11.92;81.04;99041.22;7357118;19;19914;-65
2022/12/29 04:43:49;;;;;;;;;;;;;;;11.90;82.02;99047.72;7356414;19;19956;-64
2022/12/29 04:46:23;;;;;;;;;;;;;;;11.89;82.42;99057.44;7353510;19;21721;-64
2022/12/29 04:48:50;;;;;;;;;;;;;;;11.88;82.70;99062.94;7356992;19;19923;-64
2022/12/29 04:51:17;;;;;;;;;;;;;;;11.87;82.55;99056.03;7355514;19;19919;-64
2022/12/29 04:53:43;;;;;;;;;;;;;;;11.86;82.85;99060.50;7351893;19;20438;-64
2022/12/29 04:56:10;;;;;;;;;;;;;;;11.86;83.47;99067.59;7356560;19;19919;-64
2022/12/29 04:58:37;;;;;;;;;;;;;;;11.88;84.43;99055.84;7356172;19;19930;-64
2022/12/29 05:01:04;;;;;;;;;;;;;;;11.93;85.03;99060.50;7356400;19;19952;-64
2022/12/29 05:03:30;;;;;;;;;;;;;;;11.92;84.46;99061.50;7354830;19;20002;-64
2022/12/29 05:05:57;;;;;;;;;;;;;;;11.94;84.39;99064.72;7353436;19;21670;-64
2022/12/29 05:08:24;;;;;;;;;;;;;;;11.94;83.77;99078.72;7355338;19;19927;-64
2022/12/29 05:10:54;;;;;;;;;;;;;;;11.94;84.04;99081.34;7353670;19;19923;-64
2022/12/29 05:13:20;;;;;;;;;;;;;;;11.94;84.48;99084.00;7355407;19;19925;-63
2022/12/29 05:15:49;;;;;;;;;;;;;;;11.98;84.39;99093.13;7355753;19;19951;-64
2022/12/29 05:18:16;;;;;;;;;;;;;;;11.97;84.25;99102.03;7355889;19;19919;-64
2022/12/29 05:20:43;;;;;;;;;;;;;;;11.98;84.61;99116.03;7352181;19;19939;-64
2022/12/29 05:23:10;;;;;;;;;;;;;;;11.99;84.78;99121.09;7355355;19;20895;-64
2022/12/29 05:25:37;;;;;;;;;;;;;;;11.99;85.64;99131.63;7356973;19;19914;-65
2022/12/29 05:28:03;;;;;;;;;;;;;;;11.98;84.60;99135.31;7356277;19;19934;-64
2022/12/29 05:30:30;;;;;;;;;;;;;;;11.97;84.97;99141.59;7354738;19;19927;-63
2022/12/29 05:32:57;;;;;;;;;;;;;;;11.98;85.28;99153.75;7353209;19;19930;-64
2022/12/29 05:35:23;;;;;;;;;;;;;;;11.98;84.78;99163.47;7351945;19;19926;-65
2022/12/29 05:37:50;;;;;;;;;;;;;;;11.96;84.84;99166.31;7355479;19;19926;-65
2022/12/29 05:40:17;;;;;;;;;;;;;;;11.95;84.35;99191.03;7353895;19;19931;-64
2022/12/29 05:42:43;;;;;;;;;;;;;;;11.98;84.95;99184.56;7354872;19;20762;-65
2022/12/29 05:45:10;;;;;;;;;;;;;;;11.98;84.47;99203.84;7355176;19;21608;-64
2022/12/29 05:47:37;;;;;;;;;;;;;;;11.99;84.23;99208.06;7355969;19;19929;-65
2022/12/29 05:50:04;;;;;;;;;;;;;;;12.02;84.49;99221.88;7353806;19;19923;-64
2022/12/29 05:52:31;;;;;;;;;;;;;;;12.03;83.71;99223.50;7353550;19;19925;-65
2022/12/29 05:54:57;;;;;;;;;;;;;;;12.00;83.25;99227.34;7352058;19;19953;-64
2022/12/29 05:57:24;;;;;;;;;;;;;;;11.95;82.93;99250.84;7354516;19;20361;-65
2022/12/29 05:59:51;;;;;;;;;;;;;;;11.92;82.79;99243.34;7353184;19;19960;-64
2022/12/29 06:02:17;;;;;;;;;;;;;;;11.85;82.17;99260.97;7352743;19;19941;-64
2022/12/29 06:04:44;;;;;;;;;;;;;;;11.81;82.91;99260.56;7356755;19;19954;-64
2022/12/29 06:07:11;;;;;;;;;;;;;;;11.79;83.38;99267.03;7350592;19;19930;-65
2022/12/29 06:09:37;;;;;;;;;;;;;;;11.75;83.36;99276.34;7351481;19;19923;-64
2022/12/29 06:12:04;;;;;;;;;;;;;;;11.73;83.75;99270.50;7354212;19;19935;-65
2022/12/29 06:14:31;;;;;;;;;;;;;;;11.68;82.04;99278.16;7351419;19;19930;-63
2022/12/29 06:16:58;;;;;;;;;;;;;;;11.67;81.34;99287.06;7354155;19;19910;-64
2022/12/29 06:19:25;;;;;;;;;;;;;;;11.62;81.35;99287.66;7355152;19;20885;-65
2022/12/29 06:21:52;;;;;;;;;;;;;;;11.56;81.24;99291.88;7351143;19;20014;-64
2022/12/29 06:24:19;;;;;;;;;;;;;;;11.51;81.17;99296.94;7354293;19;19951;-64
2022/12/29 06:26:46;;;;;;;;;;;;;;;11.50;80.86;99305.03;7353034;19;20292;-65
2022/12/29 06:29:16;;;;;;;;;;;;;;;11.45;80.45;99304.78;7352373;19;20317;-64
2022/12/29 06:31:46;;;;;;;;;;;;;;;11.40;81.24;99309.84;7351566;19;19927;-64
2022/12/29 06:34:13;;;;;;;;;;;;;;;11.36;80.88;99306.78;7350948;19;19923;-64
2022/12/29 06:36:39;;;;;;;;;;;;;;;11.35;81.01;99307.78;7351982;19;19951;-65
2022/12/29 06:39:06;;;;;;;;;;;;;;;11.34;80.87;99323.78;7353361;19;20495;-65
2022/12/29 06:41:33;;;;;;;;;;;;;;;11.31;81.52;99326.81;7353326;19;19927;-63
2022/12/29 06:44:00;;;;;;;;;;;;;;;11.29;82.05;99336.72;7353434;19;20280;-65
2022/12/29 06:46:26;;;;;;;;;;;;;;;11.26;82.43;99343.19;7352967;19;19923;-64
2022/12/29 06:48:53;;;;;;;;;;;;;;;11.24;82.04;99344.38;7352797;19;20624;-65
2022/12/29 06:51:20;;;;;;;;;;;;;;;11.22;82.08;99357.75;7352612;19;19926;-64
2022/12/29 06:53:46;;;;;;;;;;;;;;;11.21;82.16;99363.22;7353088;19;20015;-64
2022/12/29 06:56:13;;;;;;;;;;;;;;;11.23;82.47;99374.34;7356635;19;20395;-65
2022/12/29 06:58:40;;;;;;;;;;;;;;;11.20;82.56;99377.38;7358605;19;19943;-65
2022/12/29 07:01:06;;;;;;;;;;;;;;;11.19;82.29;99384.44;7358999;19;19933;-64
2022/12/29 07:03:33;;;;;;;;;;;;;;;11.19;82.65;99396.81;7359291;19;19934;-65
2022/12/29 07:06:00;;;;;;;;;;;;;;;11.21;82.82;99394.81;7357139;19;19935;-64
2022/12/29 07:08:27;;;;;;;;;;;;;;;11.20;82.49;99386.09;7359589;19;19922;-64
2022/12/29 07:10:53;;;;;;;;;;;;;;;11.15;81.45;99393.75;7359283;19;20260;-65
2022/12/29 07:13:20;;;;;;;;;;;;;;;11.12;81.22;99392.28;7357513;19;20536;-64
2022/12/29 07:15:47;;;;;;;;;;;;;;;11.10;81.81;99401.41;7357749;19;19954;-64
2022/12/29 07:18:13;;;;;;;;;;;;;;;11.10;81.78;99409.31;7357106;19;20222;-65
2022/12/29 07:20:40;;;;;;;;;;;;;;;11.11;81.22;99419.66;7358065;19;19938;-65
2022/12/29 07:23:07;;;;;;;;;;;;;;;11.09;80.72;99413.75;7357368;19;19927;-65
2022/12/29 07:25:35;;;;;;;;;;;;;;;11.04;80.42;99420.59;7357627;19;19922;-65
2022/12/29 07:28:03;;;;;;;;;;;;;;;11.06;81.23;99418.59;7360051;19;19931;-64
2022/12/29 07:30:30;;;;;;;;;;;;;;;11.06;81.61;99423.84;7358630;19;20514;-64
2022/12/29 07:32:56;;;;;;;;;;;;;;;11.05;80.91;99430.13;7357693;19;19939;-64
2022/12/29 07:35:23;;;;;;;;;;;;;;;11.03;81.26;99438.19;7354335;19;20591;-65
2022/12/29 07:37:50;;;;;;;;;;;;;;;10.99;80.57;99457.19;7359002;19;20015;-64
2022/12/29 07:40:16;;;;;;;;;;;;;;;10.97;81.19;99457.38;7357161;19;19918;-64
2022/12/29 07:42:43;;;;;;;;;;;;;;;10.98;82.55;99452.94;7356898;19;19922;-64
2022/12/29 07:45:10;;;;;;;;;;;;;;;10.95;81.66;99463.84;7356254;19;20030;-64
2022/12/29 07:47:37;;;;;;;;;;;;;;;10.93;82.55;99471.09;7359755;19;19923;-63
2022/12/29 07:50:04;;;;;;;;;;;;;;;10.87;81.60;99477.13;7356237;19;19915;-65
2022/12/29 07:52:31;;;;;;;;;;;;;;;10.85;81.81;99474.69;7356812;19;19926;-64
2022/12/29 07:54:57;;;;;;;;;;;;;;;10.84;82.29;99477.50;7353412;19;19945;-65
2022/12/29 07:57:24;;;;;;;;;;;;;;;10.84;81.82;99480.94;7359993;19;20670;-64
2022/12/29 07:59:57;;;;;;;;;;;;;;;10.82;81.72;99482.94;7359188;19;19922;-65
2022/12/29 08:02:25;;;;;;;;;;;;;;;10.82;81.71;99479.53;7359498;19;20049;-65
2022/12/29 08:04:53;;;;;;;;;;;;;;;10.80;81.39;99489.41;7358437;19;20643;-65
2022/12/29 08:07:19;;;;;;;;;;;;;;;10.79;81.69;99488.59;7352253;19;19950;-65
2022/12/29 08:09:46;;;;;;;;;;;;;;;10.76;81.42;99491.59;7355501;19;20234;-65
2022/12/29 08:12:13;;;;;;;;;;;;;;;10.78;81.67;99496.66;7358433;19;20364;-64
2022/12/29 08:14:39;;;;;;;;;;;;;;;10.77;81.76;99506.38;7358146;19;20295;-64
2022/12/29 08:17:06;;;;;;;;;;;;;;;10.76;81.45;99510.03;7350904;19;20503;-65
2022/12/29 08:19:33;;;;;;;;;;;;;;;10.75;81.83;99511.00;7358983;19;20482;-64
2022/12/29 08:22:00;;;;;;;;;;;;;;;10.75;81.96;99523.34;7352171;19;19919;-63
2022/12/29 08:24:26;;;;;;;;;;;;;;;10.76;82.31;99520.53;7358482;19;19919;-64
2022/12/29 08:26:53;;;;;;;;;;;;;;;10.75;82.93;99526.81;7356603;19;19915;-64
2022/12/29 08:29:21;;;;;;;;;;;;;;;10.72;82.26;99538.50;7358065;19;19933;-65
2022/12/29 08:31:48;;;;;;;;;;;;;;;10.70;82.25;99539.69;7358169;19;19918;-65
2022/12/29 08:34:15;;;;;;;;;;;;;;;10.75;83.23;99549.66;7355039;19;19930;-65
2022/12/29 08:36:41;;;;;;;;;;;;;;;10.76;83.32;99549.47;7354690;19;20506;-65
2022/12/29 08:39:08;;;;;;;;;;;;;;;10.75;83.48;99558.38;7355676;19;21778;-69
2022/12/29 08:41:35;;;;;;;;;;;;;;;10.73;83.38;99566.44;7357422;19;20549;-67
2022/12/29 08:44:02;;;;;;;;;;;;;;;10.77;83.78;99566.09;7358674;19;20357;-67
2022/12/29 08:46:28;;;;;;;;;;;;;;;10.82;84.35;99576.88;7353866;19;19915;-67
2022/12/29 08:48:55;;;;;;;;;;;;;;;10.86;84.35;99576.31;7356655;19;19947;-67
2022/12/29 08:51:22;;;;;;;;;;;;;;;10.83;83.77;99573.22;7354000;19;20244;-67
2022/12/29 08:53:50;;;;;;;;;;;;;;;10.85;84.81;99574.69;7356219;19;19938;-67
2022/12/29 08:56:21;;;;;;;;;;;;;;;10.84;84.43;99580.13;7355220;19;19926;-68
2022/12/29 08:58:47;;;;;;;;;;;;;;;10.87;84.94;99582.38;7357356;19;19910;-67
2022/12/29 09:01:14;;;;;;;;;;;;;;;10.88;84.46;99591.91;7356296;19;20546;-67
2022/12/29 09:03:41;;;;;;;;;;;;;;;10.89;84.96;99599.59;7356261;19;19929;-67
2022/12/29 09:06:28;;;;;;;;;;;;;;;10.95;85.52;99603.31;7351265;19;20206;-67
2022/12/29 09:08:57;;;;;;;;;;;;;;;10.98;84.89;99598.50;7355949;19;20384;-68
2022/12/29 09:11:24;;;;;;;;;;;;;;;11.01;84.93;99599.94;7355850;19;19923;-69
2022/12/29 09:14:00;;;;;;;;;;;;;;;10.99;84.06;99599.31;7356329;19;20710;-68
2022/12/29 09:16:27;;;;;;;;;;;;;;;11.01;84.22;99608.66;7356808;19;20018;-68
2022/12/29 09:18:53;;;;;;;;;;;;;;;10.98;83.57;99606.38;7352410;19;19934;-68
2022/12/29 09:21:20;;;;;;;;;;;;;;;10.95;83.33;99613.84;7353337;19;20019;-68
2022/12/29 09:23:48;;;;;;;;;;;;;;;10.92;83.50;99608.97;7355000;19;19918;-68
2022/12/29 09:26:14;;;;;;;;;;;;;;;10.95;84.42;99611.22;7350804;19;20458;-68
2022/12/29 09:28:42;;;;;;;;;;;;;;;10.96;84.01;99618.94;7355018;19;19937;-67
2022/12/29 09:31:08;;;;;;;;;;;;;;;10.98;83.67;99614.28;7355449;19;19930;-67
2022/12/29 09:33:35;;;;;;;;;;;;;;;11.04;84.76;99613.53;7354352;19;20555;-67
2022/12/29 09:36:02;;;;;;;;;;;;;;;11.04;83.74;99621.44;7351586;19;19922;-68
2022/12/29 09:38:29;;;;;;;;;;;;;;;11.05;83.51;99625.72;7354293;19;20826;-67
2022/12/29 09:41:00;;;;;;;;;;;;;;;11.11;83.40;99621.53;7355586;19;19967;-69
2022/12/29 09:43:38;;;;;;;;;;;;;;;11.13;83.00;99622.13;7353415;19;19922;-67
2022/12/29 09:46:20;;;;;;;;;;;;;;;11.17;81.91;99630.50;7355238;19;20294;-67
2022/12/29 09:48:50;;;;;;;;;;;;;;;11.20;81.70;99640.63;7356114;19;20267;-67
2022/12/29 09:51:21;;;;;;;;;;;;;;;11.23;82.14;99637.63;7349398;19;19915;-68
2022/12/29 09:53:59;;;;;;;;;;;;;;;11.24;81.46;99655.06;7354873;19;20012;-70
2022/12/29 09:56:27;;;;;;;;;;;;;;;11.25;80.86;99661.97;7354657;19;19923;-66
2022/12/29 09:58:59;;;;;;;;;;;;;;;11.27;81.41;99670.50;7355239;19;19933;-67
2022/12/29 10:01:26;;;;;;;;;;;;;;;11.29;81.03;99668.47;7355051;19;19945;-67
2022/12/29 10:03:57;;;;;;;;;;;;;;;11.32;80.51;99674.22;7354602;19;20285;-67
2022/12/29 10:06:37;;;;;;;;;;;;;;;11.38;80.59;99681.34;7350867;19;19951;-68
2022/12/29 10:09:32;;;;;;;;;;;;;;;11.45;79.72;99687.50;7352086;19;19965;-66
2022/12/29 10:12:18;;;;;;;;;;;;;;;11.49;79.28;99688.75;7352229;19;19923;-67
2022/12/29 10:15:06;;;;;;;;;;;;;;;11.56;78.55;99696.75;7352231;19;19935;-67
2022/12/29 10:17:39;;;;;;;;;;;;;;;11.58;78.46;99700.81;7352429;19;20331;-66
2022/12/29 10:20:05;;;;;;;;;;;;;;;11.63;78.46;99705.50;7349806;19;19918;-68
2022/12/29 10:22:35;;;;;;;;;;;;;;;11.65;78.05;99714.06;7353003;19;19919;-67
2022/12/29 10:25:04;;;;;;;;;;;;;;;11.62;77.80;99711.81;7351488;19;20026;-67
2022/12/29 10:27:32;;;;;;;;;;;;;;;11.62;77.64;99718.91;7354905;19;20319;-67
2022/12/29 10:30:01;;;;;;;;;;;;;;;11.62;77.44;99724.16;7356292;19;19933;-68
2022/12/29 10:32:30;;;;;;;;;;;;;;;11.63;77.29;99725.81;7361154;19;19918;-67
2022/12/29 10:35:15;;;;;;;;;;;;;;;11.65;78.31;99735.13;7358959;19;20834;-68
2022/12/29 10:37:45;;;;;;;;;;;;;;;11.67;78.05;99738.41;7358741;19;20343;-67
2022/12/29 10:40:30;;;;;;;;;;;;;;;11.68;77.01;99736.59;7359942;19;19948;-67
2022/12/29 10:42:57;;;;;;;;;;;;;;;11.70;77.17;99738.03;7361218;19;19914;-67
2022/12/29 10:45:27;;;;;;;;;;;;;;;11.68;76.71;99739.22;7360562;19;20614;-67
2022/12/29 10:48:20;;;;;;;;;;;;;;;11.68;76.67;99737.41;7360718;19;19945;-67
2022/12/29 10:50:50;;;;;;;;;;;;;;;11.66;76.46;99742.03;7357975;19;19947;-67
2022/12/29 10:53:25;;;;;;;;;;;;;;;11.65;75.75;99743.03;7361122;19;19923;-66
2022/12/29 10:55:53;;;;;;;;;;;;;;;11.65;76.27;99747.50;7357092;19;20459;-67
2022/12/29 10:58:20;;;;;;;;;;;;;;;11.59;75.83;99749.88;7359972;19;19923;-67
2022/12/29 11:00:50;;;;;;;;;;;;;;;11.61;76.11;99754.13;7361229;19;21137;-67
2022/12/29 11:03:17;;;;;;;;;;;;;;;11.61;76.15;99754.13;7359373;19;19914;-67
2022/12/29 11:05:50;;;;;;;;;;;;;;;11.63;75.74;99760.84;7356710;19;20012;-67
2022/12/29 11:08:22;;;;;;;;;;;;;;;11.65;74.96;99765.94;7357427;19;19929;-67
2022/12/29 11:10:57;;;;;;;;;;;;;;;11.72;75.42;99774.75;7360093;19;19952;-67
2022/12/29 11:13:26;;;;;;;;;;;;;;;11.79;76.31;99773.81;7362242;19;19962;-68
2022/12/29 11:16:00;;;;;;;;;;;;;;;11.85;75.03;99773.09;7357262;19;19923;-68
2022/12/29 11:18:32;;;;;;;;;;;;;;;11.89;74.97;99784.88;7360835;19;19994;-67
2022/12/29 11:21:01;;;;;;;;;;;;;;;11.90;74.52;99783.06;7356442;19;19923;-68
2022/12/29 11:23:35;;;;;;;;;;;;;;;11.91;74.27;99776.78;7359619;19;19923;-68
2022/12/29 11:26:17;;;;;;;;;;;;;;;11.90;73.38;99777.78;7359538;19;19931;-68
2022/12/29 11:28:46;;;;;;;;;;;;;;;11.89;74.08;99784.06;7360264;19;19926;-67
2022/12/29 11:31:16;;;;;;;;;;;;;;;11.90;73.95;99785.69;7357811;19;19930;-67
2022/12/29 11:33:43;;;;;;;;;;;;;;;11.93;73.97;99782.72;7355530;19;19923;-67
2022/12/29 11:36:36;;;;;;;;;;;;;;;11.95;73.62;99791.22;7354048;19;19922;-67
2022/12/29 11:39:02;;;;;;;;;;;;;;;11.93;72.88;99801.97;7357960;19;20678;-67
2022/12/29 11:41:37;;;;;;;;;;;;;;;11.97;73.71;99791.88;7360098;19;19930;-67
2022/12/29 11:44:11;;;;;;;;;;;;;;;12.02;73.94;99804.47;7361584;19;19953;-67
2022/12/29 11:46:38;;;;;;;;;;;;;;;12.05;73.52;99798.81;7358963;19;19922;-67
2022/12/29 11:49:05;;;;;;;;;;;;;;;12.02;71.35;99796.56;7359077;19;19926;-67
2022/12/29 11:51:45;;;;;;;;;;;;;;;12.05;72.03;99794.38;7355759;19;19926;-69
2022/12/29 11:54:32;;;;;;;;;;;;;;;12.05;71.22;99794.38;7356582;19;19930;-68
2022/12/29 11:57:09;;;;;;;;;;;;;;;12.05;70.75;99804.09;7357923;19;20509;-68
2022/12/29 11:59:37;;;;;;;;;;;;;;;12.02;70.72;99800.03;7355549;19;20543;-67
2022/12/29 12:02:10;;;;;;;;;;;;;;;12.02;70.46;99804.47;7358506;19;19911;-67
2022/12/29 12:04:38;;;;;;;;;;;;;;;12.00;70.24;99810.75;7357437;19;19934;-67
2022/12/29 12:07:12;;;;;;;;;;;;;;;12.03;70.70;99816.66;7353720;19;19919;-68
2022/12/29 12:09:45;;;;;;;;;;;;;;;12.01;70.38;99819.47;7358182;19;19923;-67
2022/12/29 12:12:21;;;;;;;;;;;;;;;12.03;71.12;99814.84;7358616;19;20717;-67
2022/12/29 12:14:54;;;;;;;;;;;;;;;12.00;70.55;99826.56;7356944;19;19948;-67
2022/12/29 12:17:35;;;;;;;;;;;;;;;12.00;70.80;99825.75;7356711;19;19929;-68
2022/12/29 12:20:09;;;;;;;;;;;;;;;11.98;68.90;99823.31;7352633;19;19926;-67
2022/12/29 12:22:38;;;;;;;;;;;;;;;12.01;70.44;99837.94;7357563;19;20348;-68
2022/12/29 12:25:06;;;;;;;;;;;;;;;12.03;70.37;99833.31;7356851;19;19923;-68
2022/12/29 12:27:40;;;;;;;;;;;;;;;12.00;70.57;99834.47;7356250;19;19968;-67
2022/12/29 12:30:19;;;;;;;;;;;;;;;12.00;68.74;99826.56;7354602;19;20481;-67
2022/12/29 12:33:00;;;;;;;;;;;;;;;12.02;69.23;99826.41;7354670;19;19922;-67
2022/12/29 12:35:44;;;;;;;;;;;;;;;12.05;69.54;99836.56;7354279;19;19930;-66
2022/12/29 12:38:10;;;;;;;;;;;;;;;12.07;69.03;99825.81;7354418;19;19923;-68
2022/12/29 12:40:58;;;;;;;;;;;;;;;12.14;69.76;99827.50;7357686;19;19942;-67
2022/12/29 12:43:44;;;;;;;;;;;;;;;12.10;68.76;99823.63;7356296;19;20419;-67
2022/12/29 12:46:23;;;;;;;;;;;;;;;12.06;68.25;99827.66;7355633;19;20570;-67
2022/12/29 12:49:15;;;;;;;;;;;;;;;12.01;68.74;99819.47;7357834;19;20479;-66
2022/12/29 12:51:50;;;;;;;;;;;;;;;11.93;68.30;99833.59;7350658;19;19972;-67
2022/12/29 12:54:23;;;;;;;;;;;;;;;11.91;68.19;99824.25;7355290;19;19935;-68
2022/12/29 12:57:02;;;;;;;;;;;;;;;11.87;68.16;99825.63;7355379;19;19927;-67
2022/12/29 12:59:48;;;;;;;;;;;;;;;11.84;68.05;99829.44;7355139;19;20425;-68
2022/12/29 13:02:28;;;;;;;;;;;;;;;11.81;68.27;99816.63;7353754;19;19948;-67
2022/12/29 13:05:05;;;;;;;;;;;;;;;11.86;69.63;99823.97;7355286;19;19925;-68
2022/12/29 13:07:32;;;;;;;;;;;;;;;11.89;68.48;99823.59;7352162;19;19930;-68
2022/12/29 13:10:12;;;;;;;;;;;;;;;11.90;68.38;99831.31;7354229;19;20297;-68
2022/12/29 13:12:38;;;;;;;;;;;;;;;11.91;69.07;99824.25;7357525;19;20363;-68
2022/12/29 13:15:32;;;;;;;;;;;;;;;11.94;68.54;99827.31;7354844;19;19926;-67
2022/12/29 13:18:05;;;;;;;;;;;;;;;11.97;68.17;99823.50;7356809;19;20026;-68
2022/12/29 13:20:43;;;;;;;;;;;;;;;11.98;68.62;99833.03;7354738;19;20353;-68
2022/12/29 13:23:10;;;;;;;;;;;;;;;11.99;67.90;99837.28;7352851;19;19923;-68
2022/12/29 13:25:49;;;;;;;;;;;;;;;11.96;67.89;99833.22;7355923;19;19942;-67
2022/12/29 13:28:22;;;;;;;;;;;;;;;11.91;67.95;99826.88;7353335;19;19943;-68
2022/12/29 13:30:52;;;;;;;;;;;;;;;11.86;67.34;99835.34;7352860;19;20283;-66
2022/12/29 13:33:27;;;;;;;;;;;;;;;11.81;66.55;99821.91;7351808;19;19951;-67
2022/12/29 13:36:00;;;;;;;;;;;;;;;11.80;67.07;99833.44;7350345;19;20448;-67
2022/12/29 13:38:35;;;;;;;;;;;;;;;11.85;67.65;99830.25;7354082;19;20306;-68